sensor_id;sensor_type;location;lat;lon;timestamp;P1;durP1;ratioP1;P2;durP2;ratioP2
52674;SDS011;38569;52.722;6.440;2024-01-11T00:00:05;53.53;;;31.05;;
52674;SDS011;38569;52.722;6.440;2024-01-11T00:02:31;48.40;;;28.85;;
52674;SDS011;38569;52.722;6.440;2024-01-11T00:04:57;55.63;;;28.65;;
52674;SDS011;38569;52.722;6.440;2024-01-11T00:07:22;50.35;;;30.30;;
52674;SDS011;38569;52.722;6.440;2024-01-11T00:09:48;49.13;;;29.98;;
52674;SDS011;38569;52.722;6.440;2024-01-11T00:12:14;44.65;;;25.17;;
52674;SDS011;38569;52.722;6.440;2024-01-11T00:14:39;50.80;;;28.60;;
52674;SDS011;38569;52.722;6.440;2024-01-11T00:17:05;51.08;;;30.65;;
52674;SDS011;38569;52.722;6.440;2024-01-11T00:19:31;53.17;;;31.55;;
52674;SDS011;38569;52.722;6.440;2024-01-11T00:21:57;48.15;;;29.15;;
52674;SDS011;38569;52.722;6.440;2024-01-11T00:24:22;47.40;;;29.08;;
52674;SDS011;38569;52.722;6.440;2024-01-11T00:26:48;49.53;;;28.70;;
52674;SDS011;38569;52.722;6.440;2024-01-11T00:29:14;50.10;;;29.90;;
52674;SDS011;38569;52.722;6.440;2024-01-11T00:31:40;48.45;;;27.83;;
52674;SDS011;38569;52.722;6.440;2024-01-11T00:34:05;50.78;;;30.63;;
52674;SDS011;38569;52.722;6.440;2024-01-11T00:36:31;52.70;;;29.70;;
52674;SDS011;38569;52.722;6.440;2024-01-11T00:38:58;48.63;;;28.80;;
52674;SDS011;38569;52.722;6.440;2024-01-11T00:41:24;53.38;;;29.90;;
52674;SDS011;38569;52.722;6.440;2024-01-11T00:43:50;52.38;;;28.48;;
52674;SDS011;38569;52.722;6.440;2024-01-11T00:46:16;50.88;;;28.60;;
52674;SDS011;38569;52.722;6.440;2024-01-11T00:48:42;48.53;;;26.88;;
52674;SDS011;38569;52.722;6.440;2024-01-11T00:51:07;43.97;;;26.50;;
52674;SDS011;38569;52.722;6.440;2024-01-11T00:53:33;46.33;;;27.00;;
52674;SDS011;38569;52.722;6.440;2024-01-11T00:56:02;46.53;;;26.48;;
52674;SDS011;38569;52.722;6.440;2024-01-11T00:58:28;52.38;;;29.13;;
52674;SDS011;38569;52.722;6.440;2024-01-11T01:00:53;49.90;;;27.50;;
52674;SDS011;38569;52.722;6.440;2024-01-11T01:03:20;42.15;;;24.70;;
52674;SDS011;38569;52.722;6.440;2024-01-11T01:05:46;55.00;;;29.73;;
52674;SDS011;38569;52.722;6.440;2024-01-11T01:08:12;38.90;;;19.35;;
52674;SDS011;38569;52.722;6.440;2024-01-11T01:10:38;48.35;;;27.33;;
52674;SDS011;38569;52.722;6.440;2024-01-11T01:13:04;47.22;;;27.05;;
52674;SDS011;38569;52.722;6.440;2024-01-11T01:15:30;51.78;;;29.75;;
52674;SDS011;38569;52.722;6.440;2024-01-11T01:17:56;48.67;;;28.20;;
52674;SDS011;38569;52.722;6.440;2024-01-11T01:20:22;54.63;;;29.50;;
52674;SDS011;38569;52.722;6.440;2024-01-11T01:22:47;51.63;;;28.17;;
52674;SDS011;38569;52.722;6.440;2024-01-11T01:25:14;48.10;;;28.30;;
52674;SDS011;38569;52.722;6.440;2024-01-11T01:27:40;49.58;;;28.23;;
52674;SDS011;38569;52.722;6.440;2024-01-11T01:30:06;52.35;;;29.75;;
52674;SDS011;38569;52.722;6.440;2024-01-11T01:32:32;51.80;;;29.52;;
52674;SDS011;38569;52.722;6.440;2024-01-11T01:34:57;50.78;;;29.90;;
52674;SDS011;38569;52.722;6.440;2024-01-11T01:37:23;52.28;;;30.33;;
52674;SDS011;38569;52.722;6.440;2024-01-11T01:39:49;53.28;;;29.58;;
52674;SDS011;38569;52.722;6.440;2024-01-11T01:42:15;46.08;;;26.02;;
52674;SDS011;38569;52.722;6.440;2024-01-11T01:44:41;61.60;;;31.75;;
52674;SDS011;38569;52.722;6.440;2024-01-11T01:47:07;49.20;;;28.90;;
52674;SDS011;38569;52.722;6.440;2024-01-11T01:49:35;56.58;;;32.22;;
52674;SDS011;38569;52.722;6.440;2024-01-11T01:52:02;51.13;;;28.80;;
52674;SDS011;38569;52.722;6.440;2024-01-11T01:54:28;52.00;;;29.92;;
52674;SDS011;38569;52.722;6.440;2024-01-11T01:56:56;55.55;;;32.28;;
52674;SDS011;38569;52.722;6.440;2024-01-11T01:59:22;51.28;;;29.50;;
52674;SDS011;38569;52.722;6.440;2024-01-11T02:01:49;52.33;;;29.52;;
52674;SDS011;38569;52.722;6.440;2024-01-11T02:04:15;59.53;;;33.08;;
52674;SDS011;38569;52.722;6.440;2024-01-11T02:06:41;59.67;;;31.55;;
52674;SDS011;38569;52.722;6.440;2024-01-11T02:09:09;53.30;;;29.42;;
52674;SDS011;38569;52.722;6.440;2024-01-11T02:11:36;55.25;;;31.83;;
52674;SDS011;38569;52.722;6.440;2024-01-11T02:14:04;53.70;;;29.90;;
52674;SDS011;38569;52.722;6.440;2024-01-11T02:16:30;53.47;;;30.10;;
52674;SDS011;38569;52.722;6.440;2024-01-11T02:18:55;56.58;;;30.13;;
52674;SDS011;38569;52.722;6.440;2024-01-11T02:21:21;56.08;;;31.45;;
52674;SDS011;38569;52.722;6.440;2024-01-11T02:24:04;57.53;;;32.40;;
52674;SDS011;38569;52.722;6.440;2024-01-11T02:26:32;52.05;;;30.08;;
52674;SDS011;38569;52.722;6.440;2024-01-11T02:28:58;51.92;;;30.88;;
52674;SDS011;38569;52.722;6.440;2024-01-11T02:31:24;49.72;;;30.42;;
52674;SDS011;38569;52.722;6.440;2024-01-11T02:33:53;61.00;;;31.23;;
52674;SDS011;38569;52.722;6.440;2024-01-11T02:36:20;51.30;;;30.02;;
52674;SDS011;38569;52.722;6.440;2024-01-11T02:38:49;56.20;;;31.27;;
52674;SDS011;38569;52.722;6.440;2024-01-11T02:41:16;56.20;;;30.25;;
52674;SDS011;38569;52.722;6.440;2024-01-11T02:43:49;53.40;;;29.15;;
52674;SDS011;38569;52.722;6.440;2024-01-11T02:46:16;57.17;;;30.95;;
52674;SDS011;38569;52.722;6.440;2024-01-11T02:48:42;52.15;;;30.38;;
52674;SDS011;38569;52.722;6.440;2024-01-11T02:51:08;56.38;;;31.23;;
52674;SDS011;38569;52.722;6.440;2024-01-11T02:53:34;52.00;;;30.42;;
52674;SDS011;38569;52.722;6.440;2024-01-11T02:56:00;56.47;;;30.75;;
52674;SDS011;38569;52.722;6.440;2024-01-11T02:58:26;59.40;;;30.17;;
52674;SDS011;38569;52.722;6.440;2024-01-11T03:00:52;58.00;;;30.70;;
52674;SDS011;38569;52.722;6.440;2024-01-11T03:03:18;55.65;;;31.83;;
52674;SDS011;38569;52.722;6.440;2024-01-11T03:05:43;56.83;;;31.02;;
52674;SDS011;38569;52.722;6.440;2024-01-11T03:08:09;54.60;;;29.88;;
52674;SDS011;38569;52.722;6.440;2024-01-11T03:10:37;53.22;;;31.23;;
52674;SDS011;38569;52.722;6.440;2024-01-11T03:13:06;52.95;;;30.40;;
52674;SDS011;38569;52.722;6.440;2024-01-11T03:15:32;56.88;;;30.67;;
52674;SDS011;38569;52.722;6.440;2024-01-11T03:17:58;56.17;;;30.60;;
52674;SDS011;38569;52.722;6.440;2024-01-11T03:20:24;54.88;;;29.85;;
52674;SDS011;38569;52.722;6.440;2024-01-11T03:22:53;55.50;;;31.63;;
52674;SDS011;38569;52.722;6.440;2024-01-11T03:25:19;52.45;;;28.02;;
52674;SDS011;38569;52.722;6.440;2024-01-11T03:27:44;51.05;;;27.77;;
52674;SDS011;38569;52.722;6.440;2024-01-11T03:30:11;51.80;;;26.80;;
52674;SDS011;38569;52.722;6.440;2024-01-11T03:32:37;51.67;;;28.75;;
52674;SDS011;38569;52.722;6.440;2024-01-11T03:35:05;53.65;;;28.73;;
52674;SDS011;38569;52.722;6.440;2024-01-11T03:37:34;51.88;;;27.95;;
52674;SDS011;38569;52.722;6.440;2024-01-11T03:40:00;49.08;;;25.38;;
52674;SDS011;38569;52.722;6.440;2024-01-11T03:42:28;57.28;;;30.45;;
52674;SDS011;38569;52.722;6.440;2024-01-11T03:44:53;57.88;;;30.75;;
52674;SDS011;38569;52.722;6.440;2024-01-11T03:47:19;51.80;;;28.67;;
52674;SDS011;38569;52.722;6.440;2024-01-11T03:49:45;54.05;;;30.75;;
52674;SDS011;38569;52.722;6.440;2024-01-11T03:52:10;62.17;;;31.67;;
52674;SDS011;38569;52.722;6.440;2024-01-11T03:54:36;57.33;;;30.33;;
52674;SDS011;38569;52.722;6.440;2024-01-11T03:57:02;57.83;;;30.77;;
52674;SDS011;38569;52.722;6.440;2024-01-11T03:59:28;58.83;;;30.27;;
52674;SDS011;38569;52.722;6.440;2024-01-11T04:01:54;51.63;;;30.15;;
52674;SDS011;38569;52.722;6.440;2024-01-11T04:04:20;54.00;;;30.38;;
52674;SDS011;38569;52.722;6.440;2024-01-11T04:06:47;58.05;;;30.55;;
52674;SDS011;38569;52.722;6.440;2024-01-11T04:09:13;56.60;;;30.23;;
52674;SDS011;38569;52.722;6.440;2024-01-11T04:11:39;56.65;;;28.80;;
52674;SDS011;38569;52.722;6.440;2024-01-11T04:14:05;55.33;;;29.55;;
52674;SDS011;38569;52.722;6.440;2024-01-11T04:16:31;55.10;;;29.55;;
52674;SDS011;38569;52.722;6.440;2024-01-11T04:18:57;52.83;;;30.23;;
52674;SDS011;38569;52.722;6.440;2024-01-11T04:21:23;52.65;;;28.98;;
52674;SDS011;38569;52.722;6.440;2024-01-11T04:23:50;52.42;;;28.95;;
52674;SDS011;38569;52.722;6.440;2024-01-11T04:26:17;59.72;;;30.40;;
52674;SDS011;38569;52.722;6.440;2024-01-11T04:28:45;51.58;;;30.27;;
52674;SDS011;38569;52.722;6.440;2024-01-11T04:31:12;58.60;;;30.67;;
52674;SDS011;38569;52.722;6.440;2024-01-11T04:33:39;53.67;;;29.13;;
52674;SDS011;38569;52.722;6.440;2024-01-11T04:36:07;49.05;;;29.25;;
52674;SDS011;38569;52.722;6.440;2024-01-11T04:38:33;56.90;;;30.23;;
52674;SDS011;38569;52.722;6.440;2024-01-11T04:40:59;48.63;;;28.38;;
52674;SDS011;38569;52.722;6.440;2024-01-11T04:43:25;59.95;;;29.88;;
52674;SDS011;38569;52.722;6.440;2024-01-11T04:45:51;51.30;;;28.33;;
52674;SDS011;38569;52.722;6.440;2024-01-11T04:48:17;51.67;;;27.48;;
52674;SDS011;38569;52.722;6.440;2024-01-11T04:50:43;50.15;;;27.92;;
52674;SDS011;38569;52.722;6.440;2024-01-11T04:53:10;58.58;;;31.00;;
52674;SDS011;38569;52.722;6.440;2024-01-11T04:55:36;50.83;;;28.52;;
52674;SDS011;38569;52.722;6.440;2024-01-11T04:58:02;57.17;;;30.55;;
52674;SDS011;38569;52.722;6.440;2024-01-11T05:00:28;57.05;;;28.77;;
52674;SDS011;38569;52.722;6.440;2024-01-11T05:02:54;50.25;;;29.63;;
52674;SDS011;38569;52.722;6.440;2024-01-11T05:05:20;51.72;;;29.00;;
52674;SDS011;38569;52.722;6.440;2024-01-11T05:07:46;52.75;;;28.88;;
52674;SDS011;38569;52.722;6.440;2024-01-11T05:10:12;53.05;;;28.90;;
52674;SDS011;38569;52.722;6.440;2024-01-11T05:12:37;57.00;;;29.98;;
52674;SDS011;38569;52.722;6.440;2024-01-11T05:15:04;58.72;;;28.88;;
52674;SDS011;38569;52.722;6.440;2024-01-11T05:17:33;54.65;;;29.13;;
52674;SDS011;38569;52.722;6.440;2024-01-11T05:19:59;56.53;;;29.85;;
52674;SDS011;38569;52.722;6.440;2024-01-11T05:22:24;51.67;;;27.88;;
52674;SDS011;38569;52.722;6.440;2024-01-11T05:24:50;45.58;;;24.52;;
52674;SDS011;38569;52.722;6.440;2024-01-11T05:27:16;55.35;;;29.58;;
52674;SDS011;38569;52.722;6.440;2024-01-11T05:29:41;58.55;;;30.70;;
52674;SDS011;38569;52.722;6.440;2024-01-11T05:32:07;56.50;;;28.77;;
52674;SDS011;38569;52.722;6.440;2024-01-11T05:34:33;59.80;;;28.65;;
52674;SDS011;38569;52.722;6.440;2024-01-11T05:36:58;58.03;;;30.48;;
52674;SDS011;38569;52.722;6.440;2024-01-11T05:39:27;57.03;;;30.05;;
52674;SDS011;38569;52.722;6.440;2024-01-11T05:41:52;61.05;;;31.45;;
52674;SDS011;38569;52.722;6.440;2024-01-11T05:44:18;62.08;;;32.65;;
52674;SDS011;38569;52.722;6.440;2024-01-11T05:46:44;62.28;;;31.50;;
52674;SDS011;38569;52.722;6.440;2024-01-11T05:49:10;61.05;;;32.30;;
52674;SDS011;38569;52.722;6.440;2024-01-11T05:51:35;64.90;;;33.28;;
52674;SDS011;38569;52.722;6.440;2024-01-11T05:54:01;60.67;;;32.35;;
52674;SDS011;38569;52.722;6.440;2024-01-11T05:56:27;67.65;;;33.53;;
52674;SDS011;38569;52.722;6.440;2024-01-11T05:58:52;58.80;;;31.05;;
52674;SDS011;38569;52.722;6.440;2024-01-11T06:01:18;64.28;;;33.55;;
52674;SDS011;38569;52.722;6.440;2024-01-11T06:03:44;61.28;;;32.30;;
52674;SDS011;38569;52.722;6.440;2024-01-11T06:06:10;60.38;;;31.10;;
52674;SDS011;38569;52.722;6.440;2024-01-11T06:08:36;58.65;;;31.42;;
52674;SDS011;38569;52.722;6.440;2024-01-11T06:11:02;62.35;;;33.30;;
52674;SDS011;38569;52.722;6.440;2024-01-11T06:13:29;65.00;;;32.65;;
52674;SDS011;38569;52.722;6.440;2024-01-11T06:15:54;67.60;;;34.67;;
52674;SDS011;38569;52.722;6.440;2024-01-11T06:18:20;60.88;;;33.00;;
52674;SDS011;38569;52.722;6.440;2024-01-11T06:20:46;63.40;;;31.63;;
52674;SDS011;38569;52.722;6.440;2024-01-11T06:23:12;61.72;;;34.15;;
52674;SDS011;38569;52.722;6.440;2024-01-11T06:25:37;58.00;;;31.02;;
52674;SDS011;38569;52.722;6.440;2024-01-11T06:28:03;57.85;;;32.75;;
52674;SDS011;38569;52.722;6.440;2024-01-11T06:30:31;61.10;;;33.92;;
52674;SDS011;38569;52.722;6.440;2024-01-11T06:32:57;62.63;;;34.17;;
52674;SDS011;38569;52.722;6.440;2024-01-11T06:35:23;59.80;;;33.65;;
52674;SDS011;38569;52.722;6.440;2024-01-11T06:37:49;61.17;;;33.45;;
52674;SDS011;38569;52.722;6.440;2024-01-11T06:40:15;64.20;;;33.20;;
52674;SDS011;38569;52.722;6.440;2024-01-11T06:42:40;62.90;;;34.30;;
52674;SDS011;38569;52.722;6.440;2024-01-11T06:45:06;59.58;;;32.88;;
52674;SDS011;38569;52.722;6.440;2024-01-11T06:47:33;60.28;;;33.25;;
52674;SDS011;38569;52.722;6.440;2024-01-11T06:49:59;55.80;;;30.92;;
52674;SDS011;38569;52.722;6.440;2024-01-11T06:52:24;61.33;;;30.95;;
52674;SDS011;38569;52.722;6.440;2024-01-11T06:54:50;60.28;;;33.00;;
52674;SDS011;38569;52.722;6.440;2024-01-11T06:57:16;54.25;;;30.65;;
52674;SDS011;38569;52.722;6.440;2024-01-11T06:59:42;56.17;;;32.50;;
52674;SDS011;38569;52.722;6.440;2024-01-11T07:02:08;59.08;;;32.60;;
52674;SDS011;38569;52.722;6.440;2024-01-11T07:04:34;57.42;;;33.33;;
52674;SDS011;38569;52.722;6.440;2024-01-11T07:07:00;57.08;;;32.08;;
52674;SDS011;38569;52.722;6.440;2024-01-11T07:09:26;58.58;;;32.95;;
52674;SDS011;38569;52.722;6.440;2024-01-11T07:11:51;57.45;;;31.70;;
52674;SDS011;38569;52.722;6.440;2024-01-11T07:14:17;55.95;;;32.15;;
52674;SDS011;38569;52.722;6.440;2024-01-11T07:16:43;56.55;;;33.20;;
52674;SDS011;38569;52.722;6.440;2024-01-11T07:19:09;60.88;;;30.67;;
52674;SDS011;38569;52.722;6.440;2024-01-11T07:21:35;61.70;;;34.25;;
52674;SDS011;38569;52.722;6.440;2024-01-11T07:24:01;53.85;;;32.88;;
52674;SDS011;38569;52.722;6.440;2024-01-11T07:26:27;56.10;;;32.67;;
52674;SDS011;38569;52.722;6.440;2024-01-11T07:28:53;58.58;;;32.95;;
52674;SDS011;38569;52.722;6.440;2024-01-11T07:31:22;58.15;;;33.55;;
52674;SDS011;38569;52.722;6.440;2024-01-11T07:33:48;59.65;;;32.58;;
52674;SDS011;38569;52.722;6.440;2024-01-11T07:36:13;58.05;;;31.20;;
52674;SDS011;38569;52.722;6.440;2024-01-11T07:38:39;57.00;;;32.90;;
52674;SDS011;38569;52.722;6.440;2024-01-11T07:41:05;63.30;;;34.58;;
52674;SDS011;38569;52.722;6.440;2024-01-11T07:43:31;53.67;;;31.30;;
52674;SDS011;38569;52.722;6.440;2024-01-11T07:46:00;58.42;;;33.95;;
52674;SDS011;38569;52.722;6.440;2024-01-11T07:48:30;57.58;;;31.40;;
52674;SDS011;38569;52.722;6.440;2024-01-11T07:50:57;53.78;;;32.75;;
52674;SDS011;38569;52.722;6.440;2024-01-11T07:53:23;60.22;;;35.05;;
52674;SDS011;38569;52.722;6.440;2024-01-11T07:55:48;53.65;;;31.75;;
52674;SDS011;38569;52.722;6.440;2024-01-11T07:58:14;61.58;;;34.78;;
52674;SDS011;38569;52.722;6.440;2024-01-11T08:00:40;55.97;;;31.17;;
52674;SDS011;38569;52.722;6.440;2024-01-11T08:03:06;59.40;;;35.40;;
52674;SDS011;38569;52.722;6.440;2024-01-11T08:05:31;56.83;;;33.72;;
52674;SDS011;38569;52.722;6.440;2024-01-11T08:07:57;56.80;;;31.77;;
52674;SDS011;38569;52.722;6.440;2024-01-11T08:10:26;55.42;;;31.73;;
52674;SDS011;38569;52.722;6.440;2024-01-11T08:12:53;62.30;;;34.28;;
52674;SDS011;38569;52.722;6.440;2024-01-11T08:15:20;55.38;;;32.45;;
52674;SDS011;38569;52.722;6.440;2024-01-11T08:17:46;69.32;;;35.58;;
52674;SDS011;38569;52.722;6.440;2024-01-11T08:20:13;60.03;;;34.63;;
52674;SDS011;38569;52.722;6.440;2024-01-11T08:22:40;58.45;;;33.88;;
52674;SDS011;38569;52.722;6.440;2024-01-11T08:25:06;58.47;;;32.25;;
52674;SDS011;38569;52.722;6.440;2024-01-11T08:27:33;59.17;;;34.78;;
52674;SDS011;38569;52.722;6.440;2024-01-11T08:29:59;58.63;;;33.75;;
52674;SDS011;38569;52.722;6.440;2024-01-11T08:32:25;56.65;;;33.50;;
52674;SDS011;38569;52.722;6.440;2024-01-11T08:34:51;58.92;;;30.90;;
52674;SDS011;38569;52.722;6.440;2024-01-11T08:37:17;61.03;;;32.53;;
52674;SDS011;38569;52.722;6.440;2024-01-11T08:39:43;58.40;;;32.88;;
52674;SDS011;38569;52.722;6.440;2024-01-11T08:42:11;55.85;;;32.90;;
52674;SDS011;38569;52.722;6.440;2024-01-11T08:44:40;63.33;;;34.70;;
52674;SDS011;38569;52.722;6.440;2024-01-11T08:47:07;54.85;;;32.40;;
52674;SDS011;38569;52.722;6.440;2024-01-11T08:49:38;53.65;;;31.23;;
52674;SDS011;38569;52.722;6.440;2024-01-11T08:52:04;53.97;;;33.28;;
52674;SDS011;38569;52.722;6.440;2024-01-11T08:54:31;62.85;;;34.50;;
52674;SDS011;38569;52.722;6.440;2024-01-11T08:56:59;52.88;;;31.58;;
52674;SDS011;38569;52.722;6.440;2024-01-11T08:59:26;57.15;;;32.10;;
52674;SDS011;38569;52.722;6.440;2024-01-11T09:01:52;53.40;;;31.73;;
52674;SDS011;38569;52.722;6.440;2024-01-11T09:04:18;57.25;;;34.33;;
52674;SDS011;38569;52.722;6.440;2024-01-11T09:06:44;53.50;;;31.23;;
52674;SDS011;38569;52.722;6.440;2024-01-11T09:09:10;54.75;;;31.95;;
52674;SDS011;38569;52.722;6.440;2024-01-11T09:11:44;55.30;;;33.75;;
52674;SDS011;38569;52.722;6.440;2024-01-11T09:14:14;59.63;;;33.15;;
52674;SDS011;38569;52.722;6.440;2024-01-11T09:16:40;54.33;;;32.97;;
52674;SDS011;38569;52.722;6.440;2024-01-11T09:19:06;52.17;;;31.33;;
52674;SDS011;38569;52.722;6.440;2024-01-11T09:21:32;53.28;;;31.45;;
52674;SDS011;38569;52.722;6.440;2024-01-11T09:23:58;55.83;;;32.60;;
52674;SDS011;38569;52.722;6.440;2024-01-11T09:26:24;50.70;;;32.40;;
52674;SDS011;38569;52.722;6.440;2024-01-11T09:28:50;54.10;;;31.42;;
52674;SDS011;38569;52.722;6.440;2024-01-11T09:31:15;55.70;;;33.03;;
52674;SDS011;38569;52.722;6.440;2024-01-11T09:33:41;56.70;;;32.80;;
52674;SDS011;38569;52.722;6.440;2024-01-11T09:36:10;59.70;;;32.00;;
52674;SDS011;38569;52.722;6.440;2024-01-11T09:38:37;50.42;;;32.30;;
52674;SDS011;38569;52.722;6.440;2024-01-11T09:41:10;57.13;;;34.05;;
52674;SDS011;38569;52.722;6.440;2024-01-11T09:43:38;51.80;;;31.55;;
52674;SDS011;38569;52.722;6.440;2024-01-11T09:46:07;56.50;;;32.97;;
52674;SDS011;38569;52.722;6.440;2024-01-11T09:48:34;54.35;;;31.48;;
52674;SDS011;38569;52.722;6.440;2024-01-11T09:51:02;55.55;;;33.22;;
52674;SDS011;38569;52.722;6.440;2024-01-11T09:53:29;51.90;;;31.40;;
52674;SDS011;38569;52.722;6.440;2024-01-11T09:55:58;54.83;;;33.17;;
52674;SDS011;38569;52.722;6.440;2024-01-11T09:58:24;58.83;;;34.28;;
52674;SDS011;38569;52.722;6.440;2024-01-11T10:00:53;54.67;;;32.35;;
52674;SDS011;38569;52.722;6.440;2024-01-11T10:03:22;55.22;;;33.25;;
52674;SDS011;38569;52.722;6.440;2024-01-11T10:05:49;57.33;;;33.25;;
52674;SDS011;38569;52.722;6.440;2024-01-11T10:08:20;56.53;;;34.70;;
52674;SDS011;38569;52.722;6.440;2024-01-11T10:10:47;65.00;;;36.78;;
52674;SDS011;38569;52.722;6.440;2024-01-11T10:13:13;55.25;;;32.35;;
52674;SDS011;38569;52.722;6.440;2024-01-11T10:15:39;57.83;;;34.38;;
52674;SDS011;38569;52.722;6.440;2024-01-11T10:18:05;60.10;;;34.72;;
52674;SDS011;38569;52.722;6.440;2024-01-11T10:20:31;57.47;;;33.03;;
52674;SDS011;38569;52.722;6.440;2024-01-11T10:22:57;55.95;;;33.90;;
52674;SDS011;38569;52.722;6.440;2024-01-11T10:25:24;52.10;;;32.35;;
52674;SDS011;38569;52.722;6.440;2024-01-11T10:27:50;55.22;;;32.10;;
52674;SDS011;38569;52.722;6.440;2024-01-11T10:30:16;64.75;;;33.10;;
52674;SDS011;38569;52.722;6.440;2024-01-11T10:32:46;55.60;;;33.97;;
52674;SDS011;38569;52.722;6.440;2024-01-11T10:35:12;61.65;;;34.65;;
52674;SDS011;38569;52.722;6.440;2024-01-11T10:37:38;67.28;;;33.80;;
52674;SDS011;38569;52.722;6.440;2024-01-11T10:40:05;63.45;;;36.55;;
52674;SDS011;38569;52.722;6.440;2024-01-11T10:42:51;56.40;;;32.55;;
52674;SDS011;38569;52.722;6.440;2024-01-11T10:45:19;58.97;;;30.85;;
52674;SDS011;38569;52.722;6.440;2024-01-11T10:47:55;54.17;;;30.92;;
52674;SDS011;38569;52.722;6.440;2024-01-11T10:50:26;54.78;;;32.97;;
52674;SDS011;38569;52.722;6.440;2024-01-11T10:53:02;57.40;;;32.70;;
52674;SDS011;38569;52.722;6.440;2024-01-11T10:55:33;57.40;;;30.60;;
52674;SDS011;38569;52.722;6.440;2024-01-11T10:58:00;56.60;;;31.65;;
52674;SDS011;38569;52.722;6.440;2024-01-11T11:00:30;56.65;;;31.45;;
52674;SDS011;38569;52.722;6.440;2024-01-11T11:02:56;62.60;;;32.25;;
52674;SDS011;38569;52.722;6.440;2024-01-11T11:05:28;57.33;;;32.65;;
52674;SDS011;38569;52.722;6.440;2024-01-11T11:07:55;61.42;;;33.72;;
52674;SDS011;38569;52.722;6.440;2024-01-11T11:10:23;51.47;;;29.45;;
52674;SDS011;38569;52.722;6.440;2024-01-11T11:12:51;50.53;;;29.95;;
52674;SDS011;38569;52.722;6.440;2024-01-11T11:15:19;53.53;;;29.65;;
52674;SDS011;38569;52.722;6.440;2024-01-11T11:17:46;56.25;;;30.65;;
52674;SDS011;38569;52.722;6.440;2024-01-11T11:20:15;53.78;;;30.42;;
52674;SDS011;38569;52.722;6.440;2024-01-11T11:22:41;54.22;;;32.10;;
52674;SDS011;38569;52.722;6.440;2024-01-11T11:25:10;56.63;;;30.95;;
52674;SDS011;38569;52.722;6.440;2024-01-11T11:27:37;59.63;;;31.75;;
52674;SDS011;38569;52.722;6.440;2024-01-11T11:30:03;56.38;;;31.27;;
52674;SDS011;38569;52.722;6.440;2024-01-11T11:32:34;53.40;;;30.35;;
52674;SDS011;38569;52.722;6.440;2024-01-11T11:35:01;55.72;;;32.13;;
52674;SDS011;38569;52.722;6.440;2024-01-11T11:37:29;53.20;;;31.30;;
52674;SDS011;38569;52.722;6.440;2024-01-11T11:39:57;58.85;;;30.52;;
52674;SDS011;38569;52.722;6.440;2024-01-11T11:42:23;62.78;;;32.30;;
52674;SDS011;38569;52.722;6.440;2024-01-11T11:44:50;54.08;;;29.85;;
52674;SDS011;38569;52.722;6.440;2024-01-11T11:47:18;60.90;;;29.88;;
52674;SDS011;38569;52.722;6.440;2024-01-11T11:52:24;53.83;;;27.27;;
52674;SDS011;38569;52.722;6.440;2024-01-11T11:54:50;55.67;;;29.52;;
52674;SDS011;38569;52.722;6.440;2024-01-11T11:57:17;48.55;;;27.52;;
52674;SDS011;38569;52.722;6.440;2024-01-11T11:59:44;52.55;;;27.45;;
52674;SDS011;38569;52.722;6.440;2024-01-11T12:02:10;46.63;;;27.23;;
52674;SDS011;38569;52.722;6.440;2024-01-11T12:04:46;60.75;;;29.17;;
52674;SDS011;38569;52.722;6.440;2024-01-11T12:07:13;41.33;;;24.45;;
52674;SDS011;38569;52.722;6.440;2024-01-11T12:09:40;42.90;;;25.73;;
52674;SDS011;38569;52.722;6.440;2024-01-11T12:12:06;46.58;;;26.60;;
52674;SDS011;38569;52.722;6.440;2024-01-11T12:14:32;42.67;;;24.67;;
52674;SDS011;38569;52.722;6.440;2024-01-11T12:17:01;43.95;;;25.42;;
52674;SDS011;38569;52.722;6.440;2024-01-11T12:19:27;42.60;;;24.48;;
52674;SDS011;38569;52.722;6.440;2024-01-11T12:21:54;41.95;;;24.33;;
52674;SDS011;38569;52.722;6.440;2024-01-11T12:24:20;45.38;;;23.48;;
52674;SDS011;38569;52.722;6.440;2024-01-11T12:26:48;39.60;;;23.67;;
52674;SDS011;38569;52.722;6.440;2024-01-11T12:29:17;41.47;;;23.92;;
52674;SDS011;38569;52.722;6.440;2024-01-11T12:31:44;44.22;;;26.50;;
52674;SDS011;38569;52.722;6.440;2024-01-11T12:34:10;42.67;;;24.88;;
52674;SDS011;38569;52.722;6.440;2024-01-11T12:36:37;43.75;;;26.95;;
52674;SDS011;38569;52.722;6.440;2024-01-11T12:39:03;41.38;;;25.50;;
52674;SDS011;38569;52.722;6.440;2024-01-11T12:41:33;49.20;;;27.75;;
52674;SDS011;38569;52.722;6.440;2024-01-11T12:44:00;49.55;;;27.38;;
52674;SDS011;38569;52.722;6.440;2024-01-11T12:46:26;58.38;;;27.65;;
52674;SDS011;38569;52.722;6.440;2024-01-11T12:48:52;44.78;;;26.13;;
52674;SDS011;38569;52.722;6.440;2024-01-11T12:51:18;45.75;;;24.40;;
52674;SDS011;38569;52.722;6.440;2024-01-11T12:53:45;43.50;;;24.98;;
52674;SDS011;38569;52.722;6.440;2024-01-11T12:56:15;44.88;;;26.17;;
52674;SDS011;38569;52.722;6.440;2024-01-11T12:58:41;53.08;;;26.52;;
52674;SDS011;38569;52.722;6.440;2024-01-11T13:01:07;73.30;;;27.63;;
52674;SDS011;38569;52.722;6.440;2024-01-11T13:03:35;47.15;;;26.02;;
52674;SDS011;38569;52.722;6.440;2024-01-11T13:06:01;50.03;;;25.83;;
52674;SDS011;38569;52.722;6.440;2024-01-11T13:08:33;49.83;;;27.67;;
52674;SDS011;38569;52.722;6.440;2024-01-11T13:11:04;43.65;;;24.63;;
52674;SDS011;38569;52.722;6.440;2024-01-11T13:13:34;49.50;;;27.13;;
52674;SDS011;38569;52.722;6.440;2024-01-11T13:16:01;55.50;;;28.00;;
52674;SDS011;38569;52.722;6.440;2024-01-11T13:18:35;89.35;;;27.25;;
52674;SDS011;38569;52.722;6.440;2024-01-11T13:21:01;50.90;;;26.50;;
52674;SDS011;38569;52.722;6.440;2024-01-11T13:23:27;54.17;;;27.55;;
52674;SDS011;38569;52.722;6.440;2024-01-11T13:25:53;44.35;;;25.05;;
52674;SDS011;38569;52.722;6.440;2024-01-11T13:28:19;49.42;;;25.55;;
52674;SDS011;38569;52.722;6.440;2024-01-11T13:30:45;46.05;;;24.92;;
52674;SDS011;38569;52.722;6.440;2024-01-11T13:33:11;42.97;;;26.05;;
52674;SDS011;38569;52.722;6.440;2024-01-11T13:35:37;45.22;;;25.20;;
52674;SDS011;38569;52.722;6.440;2024-01-11T13:38:04;45.72;;;23.75;;
52674;SDS011;38569;52.722;6.440;2024-01-11T13:40:30;43.65;;;25.42;;
52674;SDS011;38569;52.722;6.440;2024-01-11T13:42:56;47.63;;;25.88;;
52674;SDS011;38569;52.722;6.440;2024-01-11T13:45:23;51.97;;;25.45;;
52674;SDS011;38569;52.722;6.440;2024-01-11T13:47:49;48.28;;;26.08;;
52674;SDS011;38569;52.722;6.440;2024-01-11T13:50:15;48.08;;;26.90;;
52674;SDS011;38569;52.722;6.440;2024-01-11T13:52:42;39.15;;;26.10;;
52674;SDS011;38569;52.722;6.440;2024-01-11T13:55:09;46.22;;;26.75;;
52674;SDS011;38569;52.722;6.440;2024-01-11T13:57:36;46.28;;;27.17;;
52674;SDS011;38569;52.722;6.440;2024-01-11T14:00:03;42.05;;;27.33;;
52674;SDS011;38569;52.722;6.440;2024-01-11T14:02:30;45.45;;;25.45;;
52674;SDS011;38569;52.722;6.440;2024-01-11T14:04:56;52.97;;;28.75;;
52674;SDS011;38569;52.722;6.440;2024-01-11T14:07:23;44.05;;;24.33;;
52674;SDS011;38569;52.722;6.440;2024-01-11T14:09:49;40.85;;;26.23;;
52674;SDS011;38569;52.722;6.440;2024-01-11T14:12:16;44.10;;;26.08;;
52674;SDS011;38569;52.722;6.440;2024-01-11T14:14:42;40.78;;;25.38;;
52674;SDS011;38569;52.722;6.440;2024-01-11T14:17:08;47.90;;;25.15;;
52674;SDS011;38569;52.722;6.440;2024-01-11T14:19:34;58.40;;;27.58;;